sensor_id;sensor_type;location;lat;lon;timestamp;pressure;altitude;pressure_sealevel;temperature;humidity
78431;BME280;67727;50.236;22.452;2023-11-21T00:00:43;98856.27;;;5.74;84.69
78431;BME280;67727;50.236;22.452;2023-11-21T00:03:30;98857.32;;;5.74;84.89
78431;BME280;67727;50.236;22.452;2023-11-21T00:05:57;98859.41;;;5.74;84.72
78431;BME280;67727;50.236;22.452;2023-11-21T00:08:24;98856.94;;;5.74;84.91
78431;BME280;67727;50.236;22.452;2023-11-21T00:10:51;98857.53;;;5.75;84.79
78431;BME280;67727;50.236;22.452;2023-11-21T00:13:18;98854.05;;;5.77;84.82
78431;BME280;67727;50.236;22.452;2023-11-21T00:15:45;98851.71;;;5.78;84.76
78431;BME280;67727;50.236;22.452;2023-11-21T00:18:12;98856.29;;;5.76;84.69
78431;BME280;67727;50.236;22.452;2023-11-21T00:20:38;98856.96;;;5.74;84.72
78431;BME280;67727;50.236;22.452;2023-11-21T00:23:05;98861.10;;;5.72;85.06
78431;BME280;67727;50.236;22.452;2023-11-21T00:25:32;98864.40;;;5.71;84.94
78431;BME280;67727;50.236;22.452;2023-11-21T00:27:59;98864.89;;;5.72;85.14
78431;BME280;67727;50.236;22.452;2023-11-21T00:30:28;98866.79;;;5.74;85.08
78431;BME280;67727;50.236;22.452;2023-11-21T00:32:55;98867.73;;;5.75;85.09
78431;BME280;67727;50.236;22.452;2023-11-21T00:35:22;98867.15;;;5.77;85.13
78431;BME280;67727;50.236;22.452;2023-11-21T00:37:49;98872.31;;;5.80;84.98
78431;BME280;67727;50.236;22.452;2023-11-21T00:40:16;98868.14;;;5.83;85.09
78431;BME280;67727;50.236;22.452;2023-11-21T00:42:47;98866.79;;;5.87;85.32
78431;BME280;67727;50.236;22.452;2023-11-21T00:45:14;98870.39;;;5.93;85.00
78431;BME280;67727;50.236;22.452;2023-11-21T00:47:41;98863.91;;;5.96;84.82
78431;BME280;67727;50.236;22.452;2023-11-21T00:50:09;98864.63;;;5.97;84.81
78431;BME280;67727;50.236;22.452;2023-11-21T00:52:36;98862.61;;;5.98;84.82
78431;BME280;67727;50.236;22.452;2023-11-21T00:55:04;98866.62;;;5.98;84.97
78431;BME280;67727;50.236;22.452;2023-11-21T00:57:31;98868.73;;;5.98;84.80
78431;BME280;67727;50.236;22.452;2023-11-21T00:59:58;98870.15;;;5.96;84.78
78431;BME280;67727;50.236;22.452;2023-11-21T01:02:25;98867.25;;;5.94;84.88
78431;BME280;67727;50.236;22.452;2023-11-21T01:04:52;98873.20;;;5.92;84.82
78431;BME280;67727;50.236;22.452;2023-11-21T01:07:19;98861.56;;;5.93;84.98
78431;BME280;67727;50.236;22.452;2023-11-21T01:09:47;98857.73;;;5.95;84.93
78431;BME280;67727;50.236;22.452;2023-11-21T01:12:13;98858.23;;;5.95;84.88
78431;BME280;67727;50.236;22.452;2023-11-21T01:14:40;98854.34;;;5.94;85.04
78431;BME280;67727;50.236;22.452;2023-11-21T01:17:07;98853.25;;;5.92;84.86
78431;BME280;67727;50.236;22.452;2023-11-21T01:19:34;98852.78;;;5.90;84.84
78431;BME280;67727;50.236;22.452;2023-11-21T01:22:01;98846.33;;;5.88;85.01
78431;BME280;67727;50.236;22.452;2023-11-21T01:24:28;98848.23;;;5.86;84.99
78431;BME280;67727;50.236;22.452;2023-11-21T01:26:55;98845.21;;;5.85;84.84
78431;BME280;67727;50.236;22.452;2023-11-21T01:29:22;98848.05;;;5.85;85.17
78431;BME280;67727;50.236;22.452;2023-11-21T01:31:49;98848.52;;;5.87;85.06
78431;BME280;67727;50.236;22.452;2023-11-21T01:34:16;98851.42;;;5.89;85.04
78431;BME280;67727;50.236;22.452;2023-11-21T01:36:45;98856.25;;;5.92;85.29
78431;BME280;67727;50.236;22.452;2023-11-21T01:39:12;98853.02;;;5.93;85.02
78431;BME280;67727;50.236;22.452;2023-11-21T01:41:42;98849.50;;;5.93;85.03
78431;BME280;67727;50.236;22.452;2023-11-21T01:44:10;98850.48;;;5.93;85.11
78431;BME280;67727;50.236;22.452;2023-11-21T01:46:38;98846.61;;;5.94;85.04
78431;BME280;67727;50.236;22.452;2023-11-21T01:49:05;98845.52;;;5.95;84.93
78431;BME280;67727;50.236;22.452;2023-11-21T01:51:33;98844.17;;;5.96;84.95
78431;BME280;67727;50.236;22.452;2023-11-21T01:54:00;98838.84;;;5.99;85.14
78431;BME280;67727;50.236;22.452;2023-11-21T01:56:27;98840.20;;;6.01;84.91
78431;BME280;67727;50.236;22.452;2023-11-21T01:58:54;98846.54;;;6.02;84.78
78431;BME280;67727;50.236;22.452;2023-11-21T02:01:21;98846.20;;;6.04;85.24
78431;BME280;67727;50.236;22.452;2023-11-21T02:03:48;98841.84;;;6.07;85.31
78431;BME280;67727;50.236;22.452;2023-11-21T02:06:15;98840.73;;;6.07;85.13
78431;BME280;67727;50.236;22.452;2023-11-21T02:08:42;98846.60;;;6.06;85.00
78431;BME280;67727;50.236;22.452;2023-11-21T02:11:10;98845.73;;;6.05;85.02
78431;BME280;67727;50.236;22.452;2023-11-21T02:13:39;98845.63;;;6.04;84.93
78431;BME280;67727;50.236;22.452;2023-11-21T02:16:10;98844.55;;;6.03;85.00
78431;BME280;67727;50.236;22.452;2023-11-21T02:18:39;98846.48;;;6.01;85.45
78431;BME280;67727;50.236;22.452;2023-11-21T02:21:06;98845.78;;;6.01;85.07
78431;BME280;67727;50.236;22.452;2023-11-21T02:23:33;98850.48;;;6.02;85.26
78431;BME280;67727;50.236;22.452;2023-11-21T02:26:01;98849.06;;;6.03;85.27
78431;BME280;67727;50.236;22.452;2023-11-21T02:28:30;98847.64;;;6.05;85.12
78431;BME280;67727;50.236;22.452;2023-11-21T02:30:57;98851.67;;;6.06;85.49
78431;BME280;67727;50.236;22.452;2023-11-21T02:33:25;98850.02;;;6.07;85.39
78431;BME280;67727;50.236;22.452;2023-11-21T02:35:52;98854.15;;;6.08;85.52
78431;BME280;67727;50.236;22.452;2023-11-21T02:38:21;98853.89;;;6.09;85.33
78431;BME280;67727;50.236;22.452;2023-11-21T02:40:48;98852.14;;;6.09;85.56
78431;BME280;67727;50.236;22.452;2023-11-21T02:43:15;98851.91;;;6.09;85.31
78431;BME280;67727;50.236;22.452;2023-11-21T02:45:42;98848.33;;;6.10;85.35
78431;BME280;67727;50.236;22.452;2023-11-21T02:48:09;98848.27;;;6.10;85.43
78431;BME280;67727;50.236;22.452;2023-11-21T02:50:36;98840.52;;;6.11;85.52
78431;BME280;67727;50.236;22.452;2023-11-21T02:53:04;98846.89;;;6.12;85.55
78431;BME280;67727;50.236;22.452;2023-11-21T02:55:32;98843.73;;;6.13;85.72
78431;BME280;67727;50.236;22.452;2023-11-21T02:58:02;98847.08;;;6.13;85.53
78431;BME280;67727;50.236;22.452;2023-11-21T03:00:32;98844.39;;;6.12;85.62
78431;BME280;67727;50.236;22.452;2023-11-21T03:02:59;98849.07;;;6.11;85.69
78431;BME280;67727;50.236;22.452;2023-11-21T03:05:27;98849.02;;;6.10;85.58
78431;BME280;67727;50.236;22.452;2023-11-21T03:07:55;98850.60;;;6.08;85.70
78431;BME280;67727;50.236;22.452;2023-11-21T03:10:22;98852.93;;;6.08;85.83
78431;BME280;67727;50.236;22.452;2023-11-21T03:12:49;98850.70;;;6.08;85.93
78431;BME280;67727;50.236;22.452;2023-11-21T03:15:16;98851.51;;;6.07;86.13
78431;BME280;67727;50.236;22.452;2023-11-21T03:17:43;98855.29;;;6.07;86.12
78431;BME280;67727;50.236;22.452;2023-11-21T03:20:10;98856.81;;;6.09;85.97
78431;BME280;67727;50.236;22.452;2023-11-21T03:22:38;98854.75;;;6.12;86.33
78431;BME280;67727;50.236;22.452;2023-11-21T03:25:06;98852.81;;;6.14;86.39
78431;BME280;67727;50.236;22.452;2023-11-21T03:27:32;98851.13;;;6.16;86.29
78431;BME280;67727;50.236;22.452;2023-11-21T03:29:59;98850.33;;;6.19;86.69
78431;BME280;67727;50.236;22.452;2023-11-21T03:32:26;98849.27;;;6.20;86.30
78431;BME280;67727;50.236;22.452;2023-11-21T03:34:57;98848.85;;;6.21;86.33
78431;BME280;67727;50.236;22.452;2023-11-21T03:37:24;98849.66;;;6.21;86.24
78431;BME280;67727;50.236;22.452;2023-11-21T03:39:52;98846.48;;;6.22;86.30
78431;BME280;67727;50.236;22.452;2023-11-21T03:42:19;98849.05;;;6.22;86.56
78431;BME280;67727;50.236;22.452;2023-11-21T03:44:46;98847.89;;;6.23;86.61
78431;BME280;67727;50.236;22.452;2023-11-21T03:47:12;98847.55;;;6.25;86.64
78431;BME280;67727;50.236;22.452;2023-11-21T03:49:39;98848.71;;;6.27;86.66
78431;BME280;67727;50.236;22.452;2023-11-21T03:52:06;98847.94;;;6.28;86.30
78431;BME280;67727;50.236;22.452;2023-11-21T03:54:34;98848.23;;;6.26;86.21
78431;BME280;67727;50.236;22.452;2023-11-21T03:57:01;98847.78;;;6.24;86.40
78431;BME280;67727;50.236;22.452;2023-11-21T03:59:27;98849.46;;;6.23;86.49
78431;BME280;67727;50.236;22.452;2023-11-21T04:01:57;98851.08;;;6.21;86.13
78431;BME280;67727;50.236;22.452;2023-11-21T04:04:24;98852.04;;;6.21;86.47
78431;BME280;67727;50.236;22.452;2023-11-21T04:06:51;98851.52;;;6.22;86.45
78431;BME280;67727;50.236;22.452;2023-11-21T04:09:18;98856.77;;;6.22;86.50
78431;BME280;67727;50.236;22.452;2023-11-21T04:11:45;98856.75;;;6.21;86.61
78431;BME280;67727;50.236;22.452;2023-11-21T04:14:12;98852.62;;;6.20;86.73
78431;BME280;67727;50.236;22.452;2023-11-21T04:16:40;98850.98;;;6.19;86.67
78431;BME280;67727;50.236;22.452;2023-11-21T04:19:08;98849.92;;;6.19;86.71
78431;BME280;67727;50.236;22.452;2023-11-21T04:21:37;98848.63;;;6.17;86.88
78431;BME280;67727;50.236;22.452;2023-11-21T04:24:04;98851.04;;;6.16;86.81
78431;BME280;67727;50.236;22.452;2023-11-21T04:26:31;98851.95;;;6.14;87.02
78431;BME280;67727;50.236;22.452;2023-11-21T04:28:58;98852.77;;;6.12;87.08
78431;BME280;67727;50.236;22.452;2023-11-21T04:31:25;98854.85;;;6.11;87.06
78431;BME280;67727;50.236;22.452;2023-11-21T04:33:52;98855.65;;;6.10;87.04
78431;BME280;67727;50.236;22.452;2023-11-21T04:36:19;98853.89;;;6.09;87.23
78431;BME280;67727;50.236;22.452;2023-11-21T04:38:46;98852.83;;;6.07;87.44
78431;BME280;67727;50.236;22.452;2023-11-21T04:41:13;98855.67;;;6.07;87.29
78431;BME280;67727;50.236;22.452;2023-11-21T04:43:39;98853.16;;;6.07;87.48
78431;BME280;67727;50.236;22.452;2023-11-21T04:46:06;98853.27;;;6.08;87.21
78431;BME280;67727;50.236;22.452;2023-11-21T04:48:33;98854.34;;;6.08;87.45
78431;BME280;67727;50.236;22.452;2023-11-21T04:51:00;98856.77;;;6.08;87.38
78431;BME280;67727;50.236;22.452;2023-11-21T04:53:26;98856.68;;;6.08;87.52
78431;BME280;67727;50.236;22.452;2023-11-21T04:55:53;98857.02;;;6.08;87.53
78431;BME280;67727;50.236;22.452;2023-11-21T04:58:20;98862.43;;;6.08;87.61
78431;BME280;67727;50.236;22.452;2023-11-21T05:00:47;98864.33;;;6.08;87.70
78431;BME280;67727;50.236;22.452;2023-11-21T05:03:14;98866.77;;;6.08;87.33
78431;BME280;67727;50.236;22.452;2023-11-21T05:05:41;98870.65;;;6.09;87.50
78431;BME280;67727;50.236;22.452;2023-11-21T05:08:07;98869.02;;;6.10;87.65
78431;BME280;67727;50.236;22.452;2023-11-21T05:10:34;98872.81;;;6.10;87.53
78431;BME280;67727;50.236;22.452;2023-11-21T05:13:04;98868.27;;;6.12;87.70
78431;BME280;67727;50.236;22.452;2023-11-21T05:15:37;98869.84;;;6.12;87.81
78431;BME280;67727;50.236;22.452;2023-11-21T05:18:05;98873.95;;;6.08;88.06
78431;BME280;67727;50.236;22.452;2023-11-21T05:20:33;98872.48;;;6.05;88.06
78431;BME280;67727;50.236;22.452;2023-11-21T05:23:00;98877.04;;;6.04;88.20
78431;BME280;67727;50.236;22.452;2023-11-21T05:25:27;98878.80;;;6.03;88.37
78431;BME280;67727;50.236;22.452;2023-11-21T05:27:53;98883.33;;;6.03;88.43
78431;BME280;67727;50.236;22.452;2023-11-21T05:30:25;98880.71;;;6.04;88.34
78431;BME280;67727;50.236;22.452;2023-11-21T05:32:52;98883.45;;;6.06;88.62
78431;BME280;67727;50.236;22.452;2023-11-21T05:35:20;98882.98;;;6.09;88.80
78431;BME280;67727;50.236;22.452;2023-11-21T05:37:47;98885.61;;;6.10;88.56
78431;BME280;67727;50.236;22.452;2023-11-21T05:40:14;98882.70;;;6.13;88.80
78431;BME280;67727;50.236;22.452;2023-11-21T05:42:41;98886.13;;;6.17;88.84
78431;BME280;67727;50.236;22.452;2023-11-21T05:45:09;98883.34;;;6.21;88.67
78431;BME280;67727;50.236;22.452;2023-11-21T05:47:38;98883.07;;;6.27;88.67
78431;BME280;67727;50.236;22.452;2023-11-21T05:50:10;98884.33;;;6.32;88.46
78431;BME280;67727;50.236;22.452;2023-11-21T05:52:39;98885.58;;;6.37;88.44
78431;BME280;67727;50.236;22.452;2023-11-21T05:55:09;98891.45;;;6.40;88.50
78431;BME280;67727;50.236;22.452;2023-11-21T05:57:37;98893.48;;;6.44;88.31
78431;BME280;67727;50.236;22.452;2023-11-21T06:00:05;98895.43;;;6.47;88.21
78431;BME280;67727;50.236;22.452;2023-11-21T06:02:47;98895.23;;;6.49;88.37
78431;BME280;67727;50.236;22.452;2023-11-21T06:05:17;98899.52;;;6.53;88.74
78431;BME280;67727;50.236;22.452;2023-11-21T06:07:45;98895.91;;;6.56;88.84
78431;BME280;67727;50.236;22.452;2023-11-21T06:10:12;98899.35;;;6.58;88.67
78431;BME280;67727;50.236;22.452;2023-11-21T06:12:44;98900.25;;;6.61;88.68
78431;BME280;67727;50.236;22.452;2023-11-21T06:15:11;98907.02;;;6.64;88.53
78431;BME280;67727;50.236;22.452;2023-11-21T06:17:41;98909.64;;;6.67;88.78
78431;BME280;67727;50.236;22.452;2023-11-21T06:20:10;98909.79;;;6.74;88.95
78431;BME280;67727;50.236;22.452;2023-11-21T06:22:42;98908.67;;;6.78;88.70
78431;BME280;67727;50.236;22.452;2023-11-21T06:25:09;98914.36;;;6.82;89.01
78431;BME280;67727;50.236;22.452;2023-11-21T06:27:47;98913.17;;;6.86;88.77
78431;BME280;67727;50.236;22.452;2023-11-21T06:30:14;98916.52;;;6.93;88.38
78431;BME280;67727;50.236;22.452;2023-11-21T06:32:42;98917.70;;;6.99;88.12
78431;BME280;67727;50.236;22.452;2023-11-21T06:35:12;98920.01;;;7.05;88.05
78431;BME280;67727;50.236;22.452;2023-11-21T06:37:40;98922.11;;;7.11;88.25
78431;BME280;67727;50.236;22.452;2023-11-21T06:40:07;98923.68;;;7.19;88.34
78431;BME280;67727;50.236;22.452;2023-11-21T06:42:34;98924.04;;;7.25;87.80
78431;BME280;67727;50.236;22.452;2023-11-21T06:45:01;98929.77;;;7.30;87.70
78431;BME280;67727;50.236;22.452;2023-11-21T06:47:30;98930.13;;;7.33;87.22
78431;BME280;67727;50.236;22.452;2023-11-21T06:49:57;98930.35;;;7.34;87.44
78431;BME280;67727;50.236;22.452;2023-11-21T06:52:24;98932.65;;;7.34;87.38
78431;BME280;67727;50.236;22.452;2023-11-21T06:54:51;98938.02;;;7.35;87.23
78431;BME280;67727;50.236;22.452;2023-11-21T06:57:18;98937.03;;;7.34;87.20
78431;BME280;67727;50.236;22.452;2023-11-21T06:59:45;98938.48;;;7.34;87.03
78431;BME280;67727;50.236;22.452;2023-11-21T07:02:12;98942.84;;;7.31;87.01
78431;BME280;67727;50.236;22.452;2023-11-21T07:04:38;98941.60;;;7.27;87.27
78431;BME280;67727;50.236;22.452;2023-11-21T07:07:06;98943.81;;;7.24;87.05
78431;BME280;67727;50.236;22.452;2023-11-21T07:09:33;98945.52;;;7.25;87.42
78431;BME280;67727;50.236;22.452;2023-11-21T07:12:00;98946.88;;;7.25;87.31
78431;BME280;67727;50.236;22.452;2023-11-21T07:14:30;98947.53;;;7.26;87.57
78431;BME280;67727;50.236;22.452;2023-11-21T07:16:57;98945.96;;;7.29;87.21
78431;BME280;67727;50.236;22.452;2023-11-21T07:19:24;98943.58;;;7.31;86.95
78431;BME280;67727;50.236;22.452;2023-11-21T07:21:51;98938.40;;;7.33;87.16
78431;BME280;67727;50.236;22.452;2023-11-21T07:24:18;98937.83;;;7.35;86.99
78431;BME280;67727;50.236;22.452;2023-11-21T07:26:45;98943.67;;;7.36;87.20
78431;BME280;67727;50.236;22.452;2023-11-21T07:29:12;98945.58;;;7.40;87.39
78431;BME280;67727;50.236;22.452;2023-11-21T07:31:40;98945.69;;;7.42;87.59
78431;BME280;67727;50.236;22.452;2023-11-21T07:34:08;98944.02;;;7.44;87.11
78431;BME280;67727;50.236;22.452;2023-11-21T07:36:34;98942.89;;;7.45;87.42
78431;BME280;67727;50.236;22.452;2023-11-21T07:39:01;98947.45;;;7.47;87.57
78431;BME280;67727;50.236;22.452;2023-11-21T07:41:29;98947.27;;;7.47;87.11
78431;BME280;67727;50.236;22.452;2023-11-21T07:43:56;98953.60;;;7.45;87.08
78431;BME280;67727;50.236;22.452;2023-11-21T07:46:23;98954.29;;;7.42;87.34
78431;BME280;67727;50.236;22.452;2023-11-21T07:48:50;98958.73;;;7.41;87.08
78431;BME280;67727;50.236;22.452;2023-11-21T07:51:18;98961.39;;;7.39;87.56
78431;BME280;67727;50.236;22.452;2023-11-21T07:53:45;98958.98;;;7.35;87.60
78431;BME280;67727;50.236;22.452;2023-11-21T07:56:12;98958.04;;;7.30;87.59
78431;BME280;67727;50.236;22.452;2023-11-21T07:58:39;98957.85;;;7.23;87.27
78431;BME280;67727;50.236;22.452;2023-11-21T08:01:06;98959.16;;;7.19;87.15
78431;BME280;67727;50.236;22.452;2023-11-21T08:03:34;98964.66;;;7.14;87.24
78431;BME280;67727;50.236;22.452;2023-11-21T08:06:01;98961.45;;;7.10;87.34
78431;BME280;67727;50.236;22.452;2023-11-21T08:08:29;98964.50;;;7.08;87.71
78431;BME280;67727;50.236;22.452;2023-11-21T08:10:56;98966.66;;;7.06;87.53
78431;BME280;67727;50.236;22.452;2023-11-21T08:13:27;98967.45;;;7.00;87.47
78431;BME280;67727;50.236;22.452;2023-11-21T08:15:55;98968.92;;;6.97;87.57
78431;BME280;67727;50.236;22.452;2023-11-21T08:18:22;98972.06;;;6.94;87.60
78431;BME280;67727;50.236;22.452;2023-11-21T08:20:49;98971.84;;;6.91;87.86
78431;BME280;67727;50.236;22.452;2023-11-21T08:23:16;98971.33;;;6.89;88.05
78431;BME280;67727;50.236;22.452;2023-11-21T08:25:44;98972.21;;;6.89;88.17
78431;BME280;67727;50.236;22.452;2023-11-21T08:28:12;98980.17;;;6.90;88.06
78431;BME280;67727;50.236;22.452;2023-11-21T08:30:41;98979.52;;;6.90;87.89
78431;BME280;67727;50.236;22.452;2023-11-21T08:33:08;98979.04;;;6.88;87.80
78431;BME280;67727;50.236;22.452;2023-11-21T08:35:35;98979.45;;;6.87;87.96
78431;BME280;67727;50.236;22.452;2023-11-21T08:38:03;98983.85;;;6.87;88.04
78431;BME280;67727;50.236;22.452;2023-11-21T08:40:30;98983.97;;;6.86;87.81
78431;BME280;67727;50.236;22.452;2023-11-21T08:42:57;98984.47;;;6.85;87.96
78431;BME280;67727;50.236;22.452;2023-11-21T08:45:25;98987.39;;;6.82;87.94
78431;BME280;67727;50.236;22.452;2023-11-21T08:47:55;98991.50;;;6.79;88.08
78431;BME280;67727;50.236;22.452;2023-11-21T08:50:22;98995.73;;;6.79;87.73
78431;BME280;67727;50.236;22.452;2023-11-21T08:52:49;98996.05;;;6.78;88.36
78431;BME280;67727;50.236;22.452;2023-11-21T08:55:15;98997.93;;;6.77;88.26
78431;BME280;67727;50.236;22.452;2023-11-21T08:57:44;98998.61;;;6.79;88.34
78431;BME280;67727;50.236;22.452;2023-11-21T09:00:12;99000.07;;;6.82;88.32
78431;BME280;67727;50.236;22.452;2023-11-21T09:02:42;99005.59;;;6.85;88.27
78431;BME280;67727;50.236;22.452;2023-11-21T09:05:10;99004.09;;;6.87;88.23
78431;BME280;67727;50.236;22.452;2023-11-21T09:07:39;99004.88;;;6.89;88.17
78431;BME280;67727;50.236;22.452;2023-11-21T09:10:08;99005.45;;;6.94;88.38
78431;BME280;67727;50.236;22.452;2023-11-21T09:12:37;99006.58;;;6.99;88.48
78431;BME280;67727;50.236;22.452;2023-11-21T09:15:07;99006.55;;;7.01;87.95
78431;BME280;67727;50.236;22.452;2023-11-21T09:17:36;99009.66;;;7.00;87.97
78431;BME280;67727;50.236;22.452;2023-11-21T09:20:04;99009.09;;;6.99;87.95
78431;BME280;67727;50.236;22.452;2023-11-21T09:22:32;99008.40;;;6.99;88.12
78431;BME280;67727;50.236;22.452;2023-11-21T09:24:59;99003.94;;;6.99;87.95
78431;BME280;67727;50.236;22.452;2023-11-21T09:27:26;99004.60;;;6.98;87.85
78431;BME280;67727;50.236;22.452;2023-11-21T09:29:52;98998.87;;;6.94;87.88
78431;BME280;67727;50.236;22.452;2023-11-21T09:32:20;98999.67;;;6.90;88.20
78431;BME280;67727;50.236;22.452;2023-11-21T09:34:49;99001.59;;;6.87;88.22
78431;BME280;67727;50.236;22.452;2023-11-21T09:37:17;99002.23;;;6.88;88.70
78431;BME280;67727;50.236;22.452;2023-11-21T09:39:45;98999.91;;;6.88;88.66
78431;BME280;67727;50.236;22.452;2023-11-21T09:42:23;99004.78;;;6.87;88.56
78431;BME280;67727;50.236;22.452;2023-11-21T09:47:25;98990.23;;;6.88;89.04
78431;BME280;67727;50.236;22.452;2023-11-21T09:49:54;98994.55;;;6.89;88.55
78431;BME280;67727;50.236;22.452;2023-11-21T09:52:32;98998.21;;;6.88;88.64
78431;BME280;67727;50.236;22.452;2023-11-21T09:55:00;98999.63;;;6.88;88.77
78431;BME280;67727;50.236;22.452;2023-11-21T09:57:28;99003.05;;;6.88;88.69
78431;BME280;67727;50.236;22.452;2023-11-21T09:59:56;99004.71;;;6.89;88.64
78431;BME280;67727;50.236;22.452;2023-11-21T10:02:28;99008.71;;;6.91;88.41
78431;BME280;67727;50.236;22.452;2023-11-21T10:04:56;99007.36;;;6.94;88.77
78431;BME280;67727;50.236;22.452;2023-11-21T10:07:26;99011.79;;;6.98;88.41
78431;BME280;67727;50.236;22.452;2023-11-21T10:09:54;99012.09;;;7.00;88.55
78431;BME280;67727;50.236;22.452;2023-11-21T10:12:23;99016.86;;;7.00;88.26
78431;BME280;67727;50.236;22.452;2023-11-21T10:14:51;99022.80;;;7.00;87.95
78431;BME280;67727;50.236;22.452;2023-11-21T10:17:20;99024.67;;;6.99;88.20
78431;BME280;67727;50.236;22.452;2023-11-21T10:19:48;99025.43;;;7.00;88.29
78431;BME280;67727;50.236;22.452;2023-11-21T10:22:15;99026.95;;;7.01;88.17
78431;BME280;67727;50.236;22.452;2023-11-21T10:24:43;99030.34;;;6.99;87.90
78431;BME280;67727;50.236;22.452;2023-11-21T10:27:10;99032.89;;;6.95;87.82
78431;BME280;67727;50.236;22.452;2023-11-21T10:29:39;99034.51;;;6.91;88.10
78431;BME280;67727;50.236;22.452;2023-11-21T10:32:06;99036.06;;;6.89;87.87
78431;BME280;67727;50.236;22.452;2023-11-21T10:34:33;99038.59;;;6.86;88.32
78431;BME280;67727;50.236;22.452;2023-11-21T10:37:11;99036.17;;;6.84;88.21
78431;BME280;67727;50.236;22.452;2023-11-21T10:39:39;99037.17;;;6.81;88.11
78431;BME280;67727;50.236;22.452;2023-11-21T10:42:08;99039.19;;;6.80;88.40
78431;BME280;67727;50.236;22.452;2023-11-21T10:44:36;99042.05;;;6.78;88.24
78431;BME280;67727;50.236;22.452;2023-11-21T10:47:04;99042.16;;;6.74;88.00
78431;BME280;67727;50.236;22.452;2023-11-21T10:49:31;99042.67;;;6.73;88.11
78431;BME280;67727;50.236;22.452;2023-11-21T10:51:59;99037.92;;;6.70;87.95
78431;BME280;67727;50.236;22.452;2023-11-21T10:54:26;99042.59;;;6.67;88.29
78431;BME280;67727;50.236;22.452;2023-11-21T10:56:56;99046.48;;;6.67;88.19
78431;BME280;67727;50.236;22.452;2023-11-21T10:59:23;99046.71;;;6.66;88.20
78431;BME280;67727;50.236;22.452;2023-11-21T11:01:53;99049.70;;;6.68;88.25
78431;BME280;67727;50.236;22.452;2023-11-21T11:04:22;99051.88;;;6.67;87.91
78431;BME280;67727;50.236;22.452;2023-11-21T11:06:54;99053.58;;;6.61;87.69
78431;BME280;67727;50.236;22.452;2023-11-21T11:09:23;99049.69;;;6.57;87.69
78431;BME280;67727;50.236;22.452;2023-11-21T11:11:51;99047.98;;;6.53;87.67
78431;BME280;67727;50.236;22.452;2023-11-21T11:14:18;99050.73;;;6.49;87.70
78431;BME280;67727;50.236;22.452;2023-11-21T11:16:46;99048.65;;;6.42;87.49
78431;BME280;67727;50.236;22.452;2023-11-21T11:19:15;99048.89;;;6.37;87.68
78431;BME280;67727;50.236;22.452;2023-11-21T11:27:40;99046.16;;;6.30;87.82
78431;BME280;67727;50.236;22.452;2023-11-21T11:30:23;99051.31;;;6.25;87.57
78431;BME280;67727;50.236;22.452;2023-11-21T11:33:07;99057.31;;;6.17;87.43
78431;BME280;67727;50.236;22.452;2023-11-21T11:38:45;99054.93;;;5.98;87.76
78431;BME280;67727;50.236;22.452;2023-11-21T11:41:12;99059.31;;;5.95;87.89
78431;BME280;67727;50.236;22.452;2023-11-21T11:43:39;99062.71;;;5.91;87.98
78431;BME280;67727;50.236;22.452;2023-11-21T11:46:12;99063.34;;;5.88;88.04
78431;BME280;67727;50.236;22.452;2023-11-21T11:48:40;99069.90;;;5.85;87.97
78431;BME280;67727;50.236;22.452;2023-11-21T11:51:11;99071.99;;;5.81;87.81
78431;BME280;67727;50.236;22.452;2023-11-21T11:53:41;99069.20;;;5.78;87.93
78431;BME280;67727;50.236;22.452;2023-11-21T11:56:28;99069.16;;;5.78;88.08
78431;BME280;67727;50.236;22.452;2023-11-21T11:59:02;99071.56;;;5.77;87.86
78431;BME280;67727;50.236;22.452;2023-11-21T12:01:32;99074.42;;;5.78;88.03
78431;BME280;67727;50.236;22.452;2023-11-21T12:06:46;99083.25;;;5.74;87.99
78431;BME280;67727;50.236;22.452;2023-11-21T12:09:20;99080.81;;;5.70;87.74
78431;BME280;67727;50.236;22.452;2023-11-21T12:11:51;99081.15;;;5.69;88.14
78431;BME280;67727;50.236;22.452;2023-11-21T12:14:18;99081.34;;;5.69;88.04
78431;BME280;67727;50.236;22.452;2023-11-21T12:16:45;99083.52;;;5.68;88.14
78431;BME280;67727;50.236;22.452;2023-11-21T12:19:12;99087.06;;;5.69;87.95
78431;BME280;67727;50.236;22.452;2023-11-21T12:21:39;99094.90;;;5.66;87.84
78431;BME280;67727;50.236;22.452;2023-11-21T12:24:10;99096.34;;;5.64;88.01
78431;BME280;67727;50.236;22.452;2023-11-21T12:26:40;99101.96;;;5.64;87.86
78431;BME280;67727;50.236;22.452;2023-11-21T12:29:07;99103.56;;;5.59;87.68
78431;BME280;67727;50.236;22.452;2023-11-21T12:31:35;99107.10;;;5.57;87.86
78431;BME280;67727;50.236;22.452;2023-11-21T12:34:03;99106.41;;;5.56;87.76
78431;BME280;67727;50.236;22.452;2023-11-21T12:36:31;99105.63;;;5.53;87.78
78431;BME280;67727;50.236;22.452;2023-11-21T12:38:58;99109.11;;;5.51;88.07
78431;BME280;67727;50.236;22.452;2023-11-21T12:41:25;99108.25;;;5.48;87.79
78431;BME280;67727;50.236;22.452;2023-11-21T12:43:52;99112.40;;;5.45;87.88
78431;BME280;67727;50.236;22.452;2023-11-21T12:46:19;99110.70;;;5.43;87.95
78431;BME280;67727;50.236;22.452;2023-11-21T12:48:47;99115.39;;;5.43;88.25
78431;BME280;67727;50.236;22.452;2023-11-21T12:51:14;99120.73;;;5.41;88.03
78431;BME280;67727;50.236;22.452;2023-11-21T12:53:42;99121.52;;;5.41;88.02
78431;BME280;67727;50.236;22.452;2023-11-21T12:56:13;99128.52;;;5.41;88.16
78431;BME280;67727;50.236;22.452;2023-11-21T12:58:44;99139.48;;;5.39;87.83
78431;BME280;67727;50.236;22.452;2023-11-21T13:01:14;99137.64;;;5.36;88.09
78431;BME280;67727;50.236;22.452;2023-11-21T13:03:50;99140.27;;;5.33;87.97
78431;BME280;67727;50.236;22.452;2023-11-21T13:06:18;99146.58;;;5.31;87.93
78431;BME280;67727;50.236;22.452;2023-11-21T13:08:46;99149.42;;;5.29;88.05
78431;BME280;67727;50.236;22.452;2023-11-21T13:11:13;99152.29;;;5.29;88.08
78431;BME280;67727;50.236;22.452;2023-11-21T13:13:41;99155.52;;;5.28;87.78
78431;BME280;67727;50.236;22.452;2023-11-21T13:16:11;99161.84;;;5.26;87.74
78431;BME280;67727;50.236;22.452;2023-11-21T13:18:39;99166.44;;;5.24;87.88